sensor_id;sensor_type;location;lat;lon;timestamp;P1;durP1;ratioP1;P2;durP2;ratioP2
34573;SDS011;20809;49.594;8.734;2023-05-07T00:02:16;7.13;;;2.43;;
34573;SDS011;20809;49.594;8.734;2023-05-07T00:05:16;2.93;;;2.63;;
34573;SDS011;20809;49.594;8.734;2023-05-07T00:08:17;3.08;;;2.28;;
34573;SDS011;20809;49.594;8.734;2023-05-07T00:11:18;4.43;;;3.20;;
34573;SDS011;20809;49.594;8.734;2023-05-07T00:14:18;3.60;;;2.63;;
34573;SDS011;20809;49.594;8.734;2023-05-07T00:17:19;3.17;;;2.63;;
34573;SDS011;20809;49.594;8.734;2023-05-07T00:20:19;4.93;;;3.15;;
34573;SDS011;20809;49.594;8.734;2023-05-07T00:23:20;3.37;;;3.00;;
34573;SDS011;20809;49.594;8.734;2023-05-07T00:26:21;3.50;;;2.87;;
34573;SDS011;20809;49.594;8.734;2023-05-07T00:29:22;2.88;;;2.58;;
34573;SDS011;20809;49.594;8.734;2023-05-07T00:32:22;4.27;;;2.03;;
34573;SDS011;20809;49.594;8.734;2023-05-07T00:35:23;2.30;;;1.90;;
34573;SDS011;20809;49.594;8.734;2023-05-07T00:38:23;1.90;;;1.70;;
34573;SDS011;20809;49.594;8.734;2023-05-07T00:41:24;6.67;;;2.20;;
34573;SDS011;20809;49.594;8.734;2023-05-07T00:44:25;2.50;;;1.95;;
34573;SDS011;20809;49.594;8.734;2023-05-07T00:47:25;3.33;;;2.00;;
34573;SDS011;20809;49.594;8.734;2023-05-07T00:50:26;3.03;;;1.87;;
34573;SDS011;20809;49.594;8.734;2023-05-07T00:53:28;3.90;;;2.47;;
34573;SDS011;20809;49.594;8.734;2023-05-07T00:59:13;2.97;;;2.35;;
34573;SDS011;20809;49.594;8.734;2023-05-07T01:02:36;2.22;;;2.03;;
34573;SDS011;20809;49.594;8.734;2023-05-07T01:05:36;2.88;;;2.33;;
34573;SDS011;20809;49.594;8.734;2023-05-07T01:08:37;3.17;;;2.00;;
34573;SDS011;20809;49.594;8.734;2023-05-07T01:11:40;4.22;;;2.05;;
34573;SDS011;20809;49.594;8.734;2023-05-07T01:14:53;3.95;;;2.08;;
34573;SDS011;20809;49.594;8.734;2023-05-07T01:17:58;2.45;;;1.95;;
34573;SDS011;20809;49.594;8.734;2023-05-07T01:21:04;3.03;;;2.25;;
34573;SDS011;20809;49.594;8.734;2023-05-07T01:24:08;4.35;;;2.15;;
34573;SDS011;20809;49.594;8.734;2023-05-07T01:27:10;3.80;;;1.73;;
34573;SDS011;20809;49.594;8.734;2023-05-07T01:30:10;4.72;;;1.92;;
34573;SDS011;20809;49.594;8.734;2023-05-07T01:33:13;2.67;;;2.08;;
34573;SDS011;20809;49.594;8.734;2023-05-07T01:36:18;3.75;;;2.22;;
34573;SDS011;20809;49.594;8.734;2023-05-07T01:39:26;2.10;;;1.90;;
34573;SDS011;20809;49.594;8.734;2023-05-07T01:42:28;2.30;;;2.00;;
34573;SDS011;20809;49.594;8.734;2023-05-07T01:45:30;2.42;;;1.90;;
34573;SDS011;20809;49.594;8.734;2023-05-07T01:48:32;2.03;;;1.83;;
34573;SDS011;20809;49.594;8.734;2023-05-07T01:51:33;2.47;;;2.28;;
34573;SDS011;20809;49.594;8.734;2023-05-07T01:54:35;2.58;;;1.80;;
34573;SDS011;20809;49.594;8.734;2023-05-07T01:57:36;6.20;;;2.73;;
34573;SDS011;20809;49.594;8.734;2023-05-07T02:00:36;3.08;;;2.30;;
34573;SDS011;20809;49.594;8.734;2023-05-07T02:03:37;2.78;;;2.50;;
34573;SDS011;20809;49.594;8.734;2023-05-07T02:06:38;2.90;;;2.10;;
34573;SDS011;20809;49.594;8.734;2023-05-07T02:09:39;4.45;;;2.40;;
34573;SDS011;20809;49.594;8.734;2023-05-07T02:12:39;2.70;;;2.22;;
34573;SDS011;20809;49.594;8.734;2023-05-07T02:15:40;2.85;;;2.20;;
34573;SDS011;20809;49.594;8.734;2023-05-07T02:18:41;3.07;;;2.03;;
34573;SDS011;20809;49.594;8.734;2023-05-07T02:21:42;2.70;;;2.45;;
34573;SDS011;20809;49.594;8.734;2023-05-07T02:24:42;3.63;;;2.05;;
34573;SDS011;20809;49.594;8.734;2023-05-07T02:27:44;2.20;;;2.10;;
34573;SDS011;20809;49.594;8.734;2023-05-07T02:30:45;4.30;;;3.07;;
34573;SDS011;20809;49.594;8.734;2023-05-07T02:33:45;1.98;;;1.77;;
34573;SDS011;20809;49.594;8.734;2023-05-07T02:36:46;6.50;;;2.67;;
34573;SDS011;20809;49.594;8.734;2023-05-07T02:39:47;2.47;;;2.20;;
34573;SDS011;20809;49.594;8.734;2023-05-07T02:42:47;2.60;;;2.22;;
34573;SDS011;20809;49.594;8.734;2023-05-07T02:45:48;2.53;;;2.25;;
34573;SDS011;20809;49.594;8.734;2023-05-07T02:48:49;2.93;;;2.50;;
34573;SDS011;20809;49.594;8.734;2023-05-07T02:51:50;3.22;;;2.40;;
34573;SDS011;20809;49.594;8.734;2023-05-07T02:54:50;3.42;;;2.75;;
34573;SDS011;20809;49.594;8.734;2023-05-07T02:57:51;6.40;;;2.40;;
34573;SDS011;20809;49.594;8.734;2023-05-07T03:00:52;4.47;;;2.88;;
34573;SDS011;20809;49.594;8.734;2023-05-07T03:03:54;3.80;;;2.70;;
34573;SDS011;20809;49.594;8.734;2023-05-07T03:06:55;3.03;;;2.38;;
34573;SDS011;20809;49.594;8.734;2023-05-07T03:09:56;4.07;;;2.30;;
34573;SDS011;20809;49.594;8.734;2023-05-07T03:12:57;3.00;;;1.98;;
34573;SDS011;20809;49.594;8.734;2023-05-07T03:15:57;2.30;;;2.10;;
34573;SDS011;20809;49.594;8.734;2023-05-07T03:18:58;5.72;;;2.13;;
34573;SDS011;20809;49.594;8.734;2023-05-07T03:21:59;4.88;;;2.17;;
34573;SDS011;20809;49.594;8.734;2023-05-07T03:24:59;3.90;;;2.28;;
34573;SDS011;20809;49.594;8.734;2023-05-07T03:28:00;2.60;;;2.13;;
34573;SDS011;20809;49.594;8.734;2023-05-07T03:31:01;2.40;;;2.05;;
34573;SDS011;20809;49.594;8.734;2023-05-07T03:34:02;2.25;;;2.05;;
34573;SDS011;20809;49.594;8.734;2023-05-07T03:37:03;3.42;;;2.65;;
34573;SDS011;20809;49.594;8.734;2023-05-07T03:40:04;2.67;;;2.47;;
34573;SDS011;20809;49.594;8.734;2023-05-07T03:43:05;4.00;;;2.08;;
34573;SDS011;20809;49.594;8.734;2023-05-07T03:46:06;2.60;;;2.03;;
34573;SDS011;20809;49.594;8.734;2023-05-07T03:49:07;2.45;;;2.00;;
34573;SDS011;20809;49.594;8.734;2023-05-07T03:52:08;2.20;;;2.00;;
34573;SDS011;20809;49.594;8.734;2023-05-07T03:55:09;4.43;;;2.20;;
34573;SDS011;20809;49.594;8.734;2023-05-07T03:58:13;4.40;;;2.63;;
34573;SDS011;20809;49.594;8.734;2023-05-07T04:01:13;3.05;;;2.75;;
34573;SDS011;20809;49.594;8.734;2023-05-07T04:04:14;2.88;;;2.05;;
34573;SDS011;20809;49.594;8.734;2023-05-07T04:07:15;2.50;;;2.25;;
34573;SDS011;20809;49.594;8.734;2023-05-07T04:10:17;7.38;;;2.47;;
34573;SDS011;20809;49.594;8.734;2023-05-07T04:16:27;2.83;;;2.50;;
34573;SDS011;20809;49.594;8.734;2023-05-07T04:19:28;5.43;;;2.35;;
34573;SDS011;20809;49.594;8.734;2023-05-07T04:22:29;3.70;;;2.53;;
34573;SDS011;20809;49.594;8.734;2023-05-07T04:25:29;3.43;;;2.70;;
34573;SDS011;20809;49.594;8.734;2023-05-07T04:28:31;5.70;;;2.58;;
34573;SDS011;20809;49.594;8.734;2023-05-07T04:31:35;3.88;;;2.67;;
34573;SDS011;20809;49.594;8.734;2023-05-07T04:34:35;4.13;;;2.67;;
34573;SDS011;20809;49.594;8.734;2023-05-07T04:37:36;4.03;;;2.47;;
34573;SDS011;20809;49.594;8.734;2023-05-07T04:40:37;6.45;;;3.35;;
34573;SDS011;20809;49.594;8.734;2023-05-07T04:43:38;4.38;;;2.38;;
34573;SDS011;20809;49.594;8.734;2023-05-07T04:46:40;2.95;;;2.00;;
34573;SDS011;20809;49.594;8.734;2023-05-07T04:49:40;3.93;;;1.90;;
34573;SDS011;20809;49.594;8.734;2023-05-07T04:52:41;4.17;;;1.93;;
34573;SDS011;20809;49.594;8.734;2023-05-07T04:55:41;2.53;;;2.00;;
34573;SDS011;20809;49.594;8.734;2023-05-07T04:58:42;2.30;;;2.10;;
34573;SDS011;20809;49.594;8.734;2023-05-07T05:01:43;4.33;;;2.53;;
34573;SDS011;20809;49.594;8.734;2023-05-07T05:04:43;2.88;;;1.95;;
34573;SDS011;20809;49.594;8.734;2023-05-07T05:07:44;4.60;;;1.95;;
34573;SDS011;20809;49.594;8.734;2023-05-07T05:10:45;2.72;;;1.90;;
34573;SDS011;20809;49.594;8.734;2023-05-07T05:13:45;2.27;;;2.00;;
34573;SDS011;20809;49.594;8.734;2023-05-07T05:16:48;2.50;;;1.90;;
34573;SDS011;20809;49.594;8.734;2023-05-07T05:19:49;1.93;;;1.70;;
34573;SDS011;20809;49.594;8.734;2023-05-07T05:25:55;4.20;;;2.07;;
34573;SDS011;20809;49.594;8.734;2023-05-07T05:28:57;1.65;;;1.50;;
34573;SDS011;20809;49.594;8.734;2023-05-07T05:31:58;4.07;;;2.00;;
34573;SDS011;20809;49.594;8.734;2023-05-07T05:34:58;3.45;;;2.10;;
34573;SDS011;20809;49.594;8.734;2023-05-07T05:37:59;2.13;;;1.40;;
34573;SDS011;20809;49.594;8.734;2023-05-07T05:41:00;2.13;;;1.80;;
34573;SDS011;20809;49.594;8.734;2023-05-07T05:44:01;2.28;;;1.50;;
34573;SDS011;20809;49.594;8.734;2023-05-07T05:47:02;3.15;;;2.05;;
34573;SDS011;20809;49.594;8.734;2023-05-07T05:50:03;3.95;;;1.38;;
34573;SDS011;20809;49.594;8.734;2023-05-07T05:53:06;2.17;;;1.75;;
34573;SDS011;20809;49.594;8.734;2023-05-07T05:56:06;1.40;;;1.30;;
34573;SDS011;20809;49.594;8.734;2023-05-07T05:59:07;4.55;;;1.90;;
34573;SDS011;20809;49.594;8.734;2023-05-07T06:02:08;4.30;;;1.20;;
34573;SDS011;20809;49.594;8.734;2023-05-07T06:05:09;1.60;;;1.45;;
34573;SDS011;20809;49.594;8.734;2023-05-07T06:08:10;1.98;;;1.20;;
34573;SDS011;20809;49.594;8.734;2023-05-07T06:11:10;1.20;;;1.10;;
34573;SDS011;20809;49.594;8.734;2023-05-07T06:14:11;2.08;;;1.48;;
34573;SDS011;20809;49.594;8.734;2023-05-07T06:17:12;3.55;;;1.50;;
34573;SDS011;20809;49.594;8.734;2023-05-07T06:20:13;2.88;;;1.48;;
34573;SDS011;20809;49.594;8.734;2023-05-07T06:23:13;2.13;;;1.80;;
34573;SDS011;20809;49.594;8.734;2023-05-07T06:26:14;1.73;;;1.23;;
34573;SDS011;20809;49.594;8.734;2023-05-07T06:29:15;1.80;;;1.30;;
34573;SDS011;20809;49.594;8.734;2023-05-07T06:32:18;2.38;;;1.50;;
34573;SDS011;20809;49.594;8.734;2023-05-07T06:35:19;2.75;;;1.27;;
34573;SDS011;20809;49.594;8.734;2023-05-07T06:38:20;1.75;;;1.65;;
34573;SDS011;20809;49.594;8.734;2023-05-07T06:41:20;4.13;;;1.70;;
34573;SDS011;20809;49.594;8.734;2023-05-07T06:44:21;6.38;;;3.72;;
34573;SDS011;20809;49.594;8.734;2023-05-07T06:47:22;4.00;;;2.97;;
34573;SDS011;20809;49.594;8.734;2023-05-07T06:50:22;2.63;;;2.20;;
34573;SDS011;20809;49.594;8.734;2023-05-07T06:53:23;3.40;;;1.70;;
34573;SDS011;20809;49.594;8.734;2023-05-07T06:56:24;2.85;;;1.95;;
34573;SDS011;20809;49.594;8.734;2023-05-07T06:59:25;1.77;;;1.67;;
34573;SDS011;20809;49.594;8.734;2023-05-07T07:02:26;4.50;;;1.58;;
34573;SDS011;20809;49.594;8.734;2023-05-07T07:05:27;4.32;;;2.53;;
34573;SDS011;20809;49.594;8.734;2023-05-07T07:08:27;1.35;;;1.25;;
34573;SDS011;20809;49.594;8.734;2023-05-07T07:11:28;2.10;;;1.30;;
34573;SDS011;20809;49.594;8.734;2023-05-07T07:14:29;4.07;;;1.52;;
34573;SDS011;20809;49.594;8.734;2023-05-07T07:17:29;4.22;;;1.10;;
34573;SDS011;20809;49.594;8.734;2023-05-07T07:20:30;3.22;;;1.33;;
34573;SDS011;20809;49.594;8.734;2023-05-07T07:23:31;1.02;;;1.02;;
34573;SDS011;20809;49.594;8.734;2023-05-07T07:26:32;2.47;;;1.20;;
34573;SDS011;20809;49.594;8.734;2023-05-07T07:29:33;1.20;;;1.10;;
34573;SDS011;20809;49.594;8.734;2023-05-07T07:32:34;1.63;;;1.30;;
34573;SDS011;20809;49.594;8.734;2023-05-07T07:38:59;2.35;;;1.23;;
34573;SDS011;20809;49.594;8.734;2023-05-07T07:42:05;4.47;;;1.42;;
34573;SDS011;20809;49.594;8.734;2023-05-07T07:45:06;1.38;;;1.00;;
34573;SDS011;20809;49.594;8.734;2023-05-07T07:48:07;1.55;;;1.25;;
34573;SDS011;20809;49.594;8.734;2023-05-07T07:51:16;2.75;;;1.35;;
34573;SDS011;20809;49.594;8.734;2023-05-07T07:54:24;1.98;;;0.90;;
34573;SDS011;20809;49.594;8.734;2023-05-07T07:57:47;1.17;;;0.93;;
34573;SDS011;20809;49.594;8.734;2023-05-07T08:00:48;1.27;;;1.17;;
34573;SDS011;20809;49.594;8.734;2023-05-07T08:12:05;1.10;;;1.00;;
34573;SDS011;20809;49.594;8.734;2023-05-07T08:15:06;1.45;;;1.35;;
34573;SDS011;20809;49.594;8.734;2023-05-07T08:21:08;4.90;;;1.30;;
34573;SDS011;20809;49.594;8.734;2023-05-07T08:24:08;3.25;;;1.90;;
34573;SDS011;20809;49.594;8.734;2023-05-07T08:27:09;2.15;;;1.30;;
34573;SDS011;20809;49.594;8.734;2023-05-07T08:30:10;1.58;;;1.30;;
34573;SDS011;20809;49.594;8.734;2023-05-07T08:33:11;2.55;;;1.27;;
34573;SDS011;20809;49.594;8.734;2023-05-07T08:36:12;1.30;;;1.20;;
34573;SDS011;20809;49.594;8.734;2023-05-07T08:39:13;2.33;;;1.20;;
34573;SDS011;20809;49.594;8.734;2023-05-07T08:42:14;1.73;;;1.63;;
34573;SDS011;20809;49.594;8.734;2023-05-07T08:45:17;1.75;;;1.30;;
34573;SDS011;20809;49.594;8.734;2023-05-07T08:48:21;4.15;;;1.15;;
34573;SDS011;20809;49.594;8.734;2023-05-07T08:51:25;1.67;;;1.30;;
34573;SDS011;20809;49.594;8.734;2023-05-07T08:54:25;1.95;;;1.27;;
34573;SDS011;20809;49.594;8.734;2023-05-07T08:57:27;2.58;;;1.50;;
34573;SDS011;20809;49.594;8.734;2023-05-07T09:00:28;2.05;;;1.40;;
34573;SDS011;20809;49.594;8.734;2023-05-07T09:03:32;1.40;;;1.17;;
34573;SDS011;20809;49.594;8.734;2023-05-07T09:06:33;2.03;;;1.75;;
34573;SDS011;20809;49.594;8.734;2023-05-07T09:09:34;1.98;;;1.60;;
34573;SDS011;20809;49.594;8.734;2023-05-07T09:12:35;2.38;;;1.52;;
34573;SDS011;20809;49.594;8.734;2023-05-07T09:15:36;2.80;;;1.33;;
34573;SDS011;20809;49.594;8.734;2023-05-07T09:18:49;2.05;;;1.23;;
34573;SDS011;20809;49.594;8.734;2023-05-07T09:22:05;2.85;;;1.48;;
34573;SDS011;20809;49.594;8.734;2023-05-07T09:25:07;2.03;;;1.33;;
34573;SDS011;20809;49.594;8.734;2023-05-07T09:28:10;1.45;;;1.35;;
34573;SDS011;20809;49.594;8.734;2023-05-07T09:31:12;1.70;;;1.60;;
34573;SDS011;20809;49.594;8.734;2023-05-07T09:34:12;2.17;;;1.33;;
34573;SDS011;20809;49.594;8.734;2023-05-07T09:37:13;2.13;;;1.50;;
34573;SDS011;20809;49.594;8.734;2023-05-07T09:40:21;1.60;;;1.50;;
34573;SDS011;20809;49.594;8.734;2023-05-07T09:43:31;1.50;;;1.27;;
34573;SDS011;20809;49.594;8.734;2023-05-07T09:46:36;2.83;;;1.65;;
34573;SDS011;20809;49.594;8.734;2023-05-07T09:49:39;1.70;;;1.52;;
34573;SDS011;20809;49.594;8.734;2023-05-07T09:52:45;3.28;;;1.58;;
34573;SDS011;20809;49.594;8.734;2023-05-07T09:55:46;3.20;;;1.40;;
34573;SDS011;20809;49.594;8.734;2023-05-07T09:58:50;1.63;;;1.52;;
34573;SDS011;20809;49.594;8.734;2023-05-07T10:01:55;3.67;;;1.45;;
34573;SDS011;20809;49.594;8.734;2023-05-07T10:04:58;1.70;;;1.48;;
34573;SDS011;20809;49.594;8.734;2023-05-07T10:08:00;1.63;;;1.50;;
34573;SDS011;20809;49.594;8.734;2023-05-07T10:11:01;2.45;;;1.42;;
34573;SDS011;20809;49.594;8.734;2023-05-07T10:14:04;1.65;;;1.40;;
34573;SDS011;20809;49.594;8.734;2023-05-07T10:17:07;1.60;;;1.50;;
34573;SDS011;20809;49.594;8.734;2023-05-07T10:20:11;1.98;;;1.35;;
34573;SDS011;20809;49.594;8.734;2023-05-07T10:23:12;2.15;;;1.20;;
34573;SDS011;20809;49.594;8.734;2023-05-07T10:26:17;1.77;;;1.60;;
34573;SDS011;20809;49.594;8.734;2023-05-07T10:35:30;1.73;;;1.17;;
34573;SDS011;20809;49.594;8.734;2023-05-07T10:38:37;1.50;;;1.40;;
34573;SDS011;20809;49.594;8.734;2023-05-07T10:41:40;1.77;;;0.98;;
34573;SDS011;20809;49.594;8.734;2023-05-07T10:51:19;2.05;;;1.00;;
34573;SDS011;20809;49.594;8.734;2023-05-07T10:54:21;1.35;;;1.20;;
34573;SDS011;20809;49.594;8.734;2023-05-07T10:57:38;1.15;;;1.05;;
34573;SDS011;20809;49.594;8.734;2023-05-07T11:07:20;1.90;;;1.70;;
34573;SDS011;20809;49.594;8.734;2023-05-07T11:13:47;2.15;;;1.42;;
34573;SDS011;20809;49.594;8.734;2023-05-07T11:16:52;2.17;;;1.10;;
34573;SDS011;20809;49.594;8.734;2023-05-07T11:20:03;1.98;;;1.58;;
34573;SDS011;20809;49.594;8.734;2023-05-07T11:23:04;1.23;;;1.17;;
34573;SDS011;20809;49.594;8.734;2023-05-07T11:26:06;1.63;;;1.48;;
34573;SDS011;20809;49.594;8.734;2023-05-07T11:29:17;2.97;;;2.03;;
34573;SDS011;20809;49.594;8.734;2023-05-07T11:32:22;2.20;;;1.70;;
34573;SDS011;20809;49.594;8.734;2023-05-07T11:35:24;1.92;;;1.52;;
34573;SDS011;20809;49.594;8.734;2023-05-07T11:38:25;2.33;;;1.50;;
34573;SDS011;20809;49.594;8.734;2023-05-07T11:41:34;3.40;;;1.40;;
34573;SDS011;20809;49.594;8.734;2023-05-07T11:44:49;2.00;;;1.90;;
34573;SDS011;20809;49.594;8.734;2023-05-07T11:47:50;1.50;;;1.38;;
34573;SDS011;20809;49.594;8.734;2023-05-07T11:56:53;2.33;;;1.50;;
34573;SDS011;20809;49.594;8.734;2023-05-07T11:59:56;2.53;;;1.25;;
34573;SDS011;20809;49.594;8.734;2023-05-07T12:03:02;1.42;;;1.33;;
34573;SDS011;20809;49.594;8.734;2023-05-07T12:06:06;1.35;;;1.25;;
34573;SDS011;20809;49.594;8.734;2023-05-07T12:12:11;1.38;;;1.25;;
34573;SDS011;20809;49.594;8.734;2023-05-07T12:15:17;2.25;;;1.20;;
34573;SDS011;20809;49.594;8.734;2023-05-07T12:18:22;3.50;;;1.15;;
34573;SDS011;20809;49.594;8.734;2023-05-07T12:21:23;1.88;;;1.05;;
34573;SDS011;20809;49.594;8.734;2023-05-07T12:24:25;1.02;;;1.02;;
34573;SDS011;20809;49.594;8.734;2023-05-07T12:30:26;2.27;;;1.33;;
34573;SDS011;20809;49.594;8.734;2023-05-07T12:36:35;1.40;;;1.30;;
34573;SDS011;20809;49.594;8.734;2023-05-07T12:39:38;1.13;;;1.00;;
34573;SDS011;20809;49.594;8.734;2023-05-07T12:42:44;1.45;;;1.10;;
34573;SDS011;20809;49.594;8.734;2023-05-07T12:48:46;1.27;;;1.17;;
34573;SDS011;20809;49.594;8.734;2023-05-07T12:51:48;1.77;;;1.10;;
34573;SDS011;20809;49.594;8.734;2023-05-07T12:54:49;0.80;;;0.80;;
34573;SDS011;20809;49.594;8.734;2023-05-07T13:00:51;1.63;;;1.52;;
34573;SDS011;20809;49.594;8.734;2023-05-07T13:03:52;1.70;;;0.90;;
34573;SDS011;20809;49.594;8.734;2023-05-07T13:09:53;2.20;;;0.87;;
34573;SDS011;20809;49.594;8.734;2023-05-07T13:15:55;3.27;;;1.30;;
34573;SDS011;20809;49.594;8.734;2023-05-07T13:18:55;1.77;;;1.58;;
34573;SDS011;20809;49.594;8.734;2023-05-07T13:24:56;1.90;;;1.53;;
34573;SDS011;20809;49.594;8.734;2023-05-07T13:30:58;1.50;;;1.40;;
34573;SDS011;20809;49.594;8.734;2023-05-07T13:36:59;1.73;;;1.30;;
34573;SDS011;20809;49.594;8.734;2023-05-07T13:43:01;1.60;;;1.50;;
34573;SDS011;20809;49.594;8.734;2023-05-07T13:46:04;1.40;;;1.30;;
34573;SDS011;20809;49.594;8.734;2023-05-07T13:52:05;1.60;;;1.50;;
34573;SDS011;20809;49.594;8.734;2023-05-07T13:58:07;5.97;;;2.53;;
34573;SDS011;20809;49.594;8.734;2023-05-07T14:01:07;1.77;;;1.67;;
34573;SDS011;20809;49.594;8.734;2023-05-07T14:04:08;2.13;;;1.65;;
34573;SDS011;20809;49.594;8.734;2023-05-07T14:07:09;2.42;;;1.42;;
34573;SDS011;20809;49.594;8.734;2023-05-07T14:10:10;1.83;;;1.60;;
34573;SDS011;20809;49.594;8.734;2023-05-07T14:13:11;2.28;;;2.08;;
34573;SDS011;20809;49.594;8.734;2023-05-07T14:16:11;1.92;;;1.52;;
34573;SDS011;20809;49.594;8.734;2023-05-07T14:19:12;1.55;;;1.45;;
34573;SDS011;20809;49.594;8.734;2023-05-07T14:22:13;1.88;;;1.55;;
34573;SDS011;20809;49.594;8.734;2023-05-07T14:25:15;2.70;;;1.50;;
34573;SDS011;20809;49.594;8.734;2023-05-07T14:28:16;2.47;;;1.70;;
34573;SDS011;20809;49.594;8.734;2023-05-07T14:31:16;3.38;;;2.10;;
34573;SDS011;20809;49.594;8.734;2023-05-07T14:34:17;2.50;;;2.10;;
34573;SDS011;20809;49.594;8.734;2023-05-07T14:37:17;2.20;;;1.83;;
34573;SDS011;20809;49.594;8.734;2023-05-07T14:40:19;3.53;;;2.00;;
34573;SDS011;20809;49.594;8.734;2023-05-07T14:43:20;2.45;;;1.63;;
34573;SDS011;20809;49.594;8.734;2023-05-07T14:46:21;2.00;;;1.80;;
34573;SDS011;20809;49.594;8.734;2023-05-07T14:49:21;3.33;;;1.80;;
34573;SDS011;20809;49.594;8.734;2023-05-07T14:52:22;3.25;;;1.92;;
34573;SDS011;20809;49.594;8.734;2023-05-07T14:55:23;10.52;;;1.80;;
34573;SDS011;20809;49.594;8.734;2023-05-07T14:58:23;2.60;;;1.50;;
34573;SDS011;20809;49.594;8.734;2023-05-07T15:01:25;5.15;;;1.55;;
34573;SDS011;20809;49.594;8.734;2023-05-07T15:04:25;4.85;;;3.00;;
34573;SDS011;20809;49.594;8.734;2023-05-07T15:07:26;5.50;;;2.95;;
34573;SDS011;20809;49.594;8.734;2023-05-07T15:10:27;6.90;;;3.58;;
34573;SDS011;20809;49.594;8.734;2023-05-07T15:13:28;7.10;;;3.55;;
34573;SDS011;20809;49.594;8.734;2023-05-07T15:16:28;5.87;;;2.73;;
34573;SDS011;20809;49.594;8.734;2023-05-07T15:19:29;4.30;;;2.90;;
34573;SDS011;20809;49.594;8.734;2023-05-07T15:22:30;6.55;;;3.03;;
34573;SDS011;20809;49.594;8.734;2023-05-07T15:25:31;7.07;;;3.40;;
34573;SDS011;20809;49.594;8.734;2023-05-07T15:28:33;4.75;;;3.20;;
34573;SDS011;20809;49.594;8.734;2023-05-07T15:31:34;3.33;;;2.95;;
34573;SDS011;20809;49.594;8.734;2023-05-07T15:34:34;5.45;;;3.60;;
34573;SDS011;20809;49.594;8.734;2023-05-07T15:37:35;6.17;;;4.73;;
34573;SDS011;20809;49.594;8.734;2023-05-07T15:40:36;5.13;;;3.53;;
34573;SDS011;20809;49.594;8.734;2023-05-07T15:43:46;6.70;;;4.60;;
34573;SDS011;20809;49.594;8.734;2023-05-07T15:46:49;7.05;;;3.97;;
34573;SDS011;20809;49.594;8.734;2023-05-07T15:49:50;7.63;;;3.30;;
34573;SDS011;20809;49.594;8.734;2023-05-07T15:52:50;3.95;;;3.30;;
34573;SDS011;20809;49.594;8.734;2023-05-07T15:55:51;5.50;;;2.90;;
34573;SDS011;20809;49.594;8.734;2023-05-07T15:58:52;6.03;;;3.20;;
34573;SDS011;20809;49.594;8.734;2023-05-07T16:05:18;3.35;;;2.80;;
34573;SDS011;20809;49.594;8.734;2023-05-07T16:08:19;4.15;;;2.80;;
34573;SDS011;20809;49.594;8.734;2023-05-07T16:14:21;2.83;;;2.25;;
34573;SDS011;20809;49.594;8.734;2023-05-07T16:17:21;4.22;;;2.60;;
34573;SDS011;20809;49.594;8.734;2023-05-07T16:20:25;4.20;;;1.97;;
34573;SDS011;20809;49.594;8.734;2023-05-07T16:23:28;3.08;;;2.10;;
34573;SDS011;20809;49.594;8.734;2023-05-07T16:26:30;6.30;;;2.22;;
34573;SDS011;20809;49.594;8.734;2023-05-07T16:29:30;2.80;;;2.27;;
34573;SDS011;20809;49.594;8.734;2023-05-07T16:32:31;7.25;;;2.33;;
34573;SDS011;20809;49.594;8.734;2023-05-07T16:35:32;3.50;;;2.80;;
34573;SDS011;20809;49.594;8.734;2023-05-07T16:38:32;3.88;;;2.70;;
34573;SDS011;20809;49.594;8.734;2023-05-07T16:41:33;3.88;;;2.33;;
34573;SDS011;20809;49.594;8.734;2023-05-07T16:44:34;3.15;;;2.50;;
34573;SDS011;20809;49.594;8.734;2023-05-07T16:47:35;3.92;;;2.38;;
34573;SDS011;20809;49.594;8.734;2023-05-07T16:50:36;4.32;;;2.72;;
34573;SDS011;20809;49.594;8.734;2023-05-07T16:53:36;8.80;;;4.00;;
34573;SDS011;20809;49.594;8.734;2023-05-07T16:56:37;8.77;;;4.10;;
34573;SDS011;20809;49.594;8.734;2023-05-07T16:59:38;12.15;;;7.47;;
34573;SDS011;20809;49.594;8.734;2023-05-07T17:02:38;5.35;;;2.92;;
34573;SDS011;20809;49.594;8.734;2023-05-07T17:05:39;6.60;;;3.90;;
34573;SDS011;20809;49.594;8.734;2023-05-07T17:08:40;3.70;;;2.70;;
34573;SDS011;20809;49.594;8.734;2023-05-07T17:11:41;6.13;;;2.30;;
34573;SDS011;20809;49.594;8.734;2023-05-07T17:14:42;9.23;;;2.47;;
34573;SDS011;20809;49.594;8.734;2023-05-07T17:17:42;4.25;;;2.72;;
34573;SDS011;20809;49.594;8.734;2023-05-07T17:20:43;3.83;;;2.20;;
34573;SDS011;20809;49.594;8.734;2023-05-07T17:23:44;4.40;;;2.70;;
34573;SDS011;20809;49.594;8.734;2023-05-07T17:26:46;4.65;;;3.80;;
34573;SDS011;20809;49.594;8.734;2023-05-07T17:29:47;4.60;;;3.50;;
34573;SDS011;20809;49.594;8.734;2023-05-07T17:32:48;5.30;;;4.22;;
34573;SDS011;20809;49.594;8.734;2023-05-07T17:35:55;5.43;;;3.30;;
34573;SDS011;20809;49.594;8.734;2023-05-07T17:38:56;5.43;;;4.00;;
34573;SDS011;20809;49.594;8.734;2023-05-07T17:41:57;5.85;;;3.92;;
34573;SDS011;20809;49.594;8.734;2023-05-07T17:44:57;6.32;;;4.13;;
34573;SDS011;20809;49.594;8.734;2023-05-07T17:47:58;12.00;;;4.60;;
34573;SDS011;20809;49.594;8.734;2023-05-07T17:50:59;7.10;;;4.63;;
34573;SDS011;20809;49.594;8.734;2023-05-07T17:54:02;10.60;;;4.70;;
34573;SDS011;20809;49.594;8.734;2023-05-07T17:57:03;8.10;;;4.88;;
34573;SDS011;20809;49.594;8.734;2023-05-07T18:00:04;8.30;;;5.20;;
34573;SDS011;20809;49.594;8.734;2023-05-07T18:03:08;6.85;;;3.95;;
34573;SDS011;20809;49.594;8.734;2023-05-07T18:06:09;4.28;;;3.58;;
34573;SDS011;20809;49.594;8.734;2023-05-07T18:09:10;10.57;;;5.23;;
34573;SDS011;20809;49.594;8.734;2023-05-07T18:12:10;4.78;;;3.78;;
34573;SDS011;20809;49.594;8.734;2023-05-07T18:15:11;6.03;;;3.97;;
34573;SDS011;20809;49.594;8.734;2023-05-07T18:18:12;7.00;;;3.97;;
34573;SDS011;20809;49.594;8.734;2023-05-07T18:21:13;6.35;;;4.13;;
34573;SDS011;20809;49.594;8.734;2023-05-07T18:24:17;6.40;;;4.72;;
34573;SDS011;20809;49.594;8.734;2023-05-07T18:30:19;5.67;;;3.77;;
34573;SDS011;20809;49.594;8.734;2023-05-07T18:33:21;2.72;;;2.53;;
34573;SDS011;20809;49.594;8.734;2023-05-07T18:36:21;2.70;;;2.10;;
34573;SDS011;20809;49.594;8.734;2023-05-07T18:39:24;6.13;;;3.38;;
34573;SDS011;20809;49.594;8.734;2023-05-07T18:42:24;3.77;;;3.13;;
34573;SDS011;20809;49.594;8.734;2023-05-07T18:45:28;6.22;;;3.75;;
34573;SDS011;20809;49.594;8.734;2023-05-07T18:48:28;5.07;;;4.10;;
34573;SDS011;20809;49.594;8.734;2023-05-07T18:51:29;5.30;;;3.83;;
34573;SDS011;20809;49.594;8.734;2023-05-07T18:54:29;3.83;;;3.43;;
34573;SDS011;20809;49.594;8.734;2023-05-07T18:57:30;5.53;;;3.67;;
34573;SDS011;20809;49.594;8.734;2023-05-07T19:00:31;4.50;;;3.90;;
34573;SDS011;20809;49.594;8.734;2023-05-07T19:03:31;3.83;;;3.53;;
34573;SDS011;20809;49.594;8.734;2023-05-07T19:06:35;4.85;;;4.18;;
34573;SDS011;20809;49.594;8.734;2023-05-07T19:09:35;6.15;;;4.80;;
34573;SDS011;20809;49.594;8.734;2023-05-07T19:12:36;5.60;;;4.13;;
34573;SDS011;20809;49.594;8.734;2023-05-07T19:15:37;5.95;;;4.05;;
34573;SDS011;20809;49.594;8.734;2023-05-07T19:18:40;7.95;;;4.40;;
34573;SDS011;20809;49.594;8.734;2023-05-07T19:21:42;6.22;;;3.72;;
34573;SDS011;20809;49.594;8.734;2023-05-07T19:24:43;3.58;;;3.28;;
34573;SDS011;20809;49.594;8.734;2023-05-07T19:27:43;3.53;;;2.93;;
34573;SDS011;20809;49.594;8.734;2023-05-07T19:30:46;3.42;;;3.13;;
34573;SDS011;20809;49.594;8.734;2023-05-07T19:33:48;4.38;;;2.35;;
34573;SDS011;20809;49.594;8.734;2023-05-07T19:36:49;2.90;;;2.10;;
34573;SDS011;20809;49.594;8.734;2023-05-07T19:39:51;4.22;;;2.30;;
34573;SDS011;20809;49.594;8.734;2023-05-07T19:42:52;1.88;;;1.77;;
34573;SDS011;20809;49.594;8.734;2023-05-07T19:45:53;1.80;;;1.70;;
34573;SDS011;20809;49.594;8.734;2023-05-07T19:48:53;3.47;;;2.35;;
34573;SDS011;20809;49.594;8.734;2023-05-07T19:51:54;2.53;;;2.05;;
34573;SDS011;20809;49.594;8.734;2023-05-07T19:54:56;2.08;;;1.90;;
34573;SDS011;20809;49.594;8.734;2023-05-07T19:57:57;1.58;;;1.10;;